createdAt,value
2023-05-17T00:02:04.403Z,1.15
2023-05-17T00:06:07.743Z,1.30
2023-05-17T00:10:11.269Z,1.20
2023-05-17T00:14:16.168Z,1.10
2023-05-17T00:18:19.331Z,1.35
2023-05-17T00:22:22.419Z,1.40
2023-05-17T00:26:25.615Z,1.08
2023-05-17T00:30:30.059Z,1.10
2023-05-17T00:34:33.285Z,1.13
2023-05-17T00:38:36.395Z,1.30
2023-05-17T00:42:39.657Z,1.30
2023-05-17T00:46:44.053Z,1.10
2023-05-17T00:50:47.716Z,1.35
2023-05-17T00:54:52.796Z,1.10
2023-05-17T00:58:56.335Z,1.10
2023-05-17T01:03:01.859Z,1.20
2023-05-17T01:07:05.690Z,1.10
2023-05-17T01:11:17.577Z,1.20
2023-05-17T01:15:26.700Z,1.15
2023-05-17T01:19:50.316Z,1.23
2023-05-17T01:24:00.647Z,1.10
2023-05-17T01:28:06.582Z,1.17
2023-05-17T01:32:10.235Z,1.00
2023-05-17T01:36:13.302Z,1.40
2023-05-17T01:40:19.569Z,1.10
2023-05-17T01:44:33.562Z,1.10
2023-05-17T01:48:41.983Z,1.08
2023-05-17T01:52:52.264Z,1.20
2023-05-17T01:56:58.904Z,1.10
2023-05-17T02:01:04.328Z,1.13
2023-05-17T02:05:08.390Z,1.17
2023-05-17T02:09:11.463Z,1.25
2023-05-17T02:13:14.995Z,1.27
2023-05-17T02:17:19.378Z,1.40
2023-05-17T02:21:22.488Z,1.13
2023-05-17T02:25:25.489Z,1.10
2023-05-17T02:29:28.620Z,1.20
2023-05-17T02:33:33.160Z,1.20
2023-05-17T02:37:36.612Z,1.23
2023-05-17T02:41:39.683Z,1.27
2023-05-17T02:45:45.075Z,1.33
2023-05-17T02:49:50.722Z,1.60
2023-05-17T02:53:54.188Z,1.48
2023-05-17T02:57:57.235Z,1.90
2023-05-17T03:02:00.891Z,1.83
2023-05-17T03:06:06.657Z,1.70
2023-05-17T03:10:10.425Z,1.58
2023-05-17T03:14:18.240Z,1.55
2023-05-17T03:18:21.682Z,1.80
2023-05-17T03:22:26.425Z,1.70
2023-05-17T03:26:32.157Z,1.90
2023-05-17T03:30:35.683Z,1.80
2023-05-17T03:34:39.541Z,1.88
2023-05-17T03:38:44.258Z,2.00
2023-05-17T03:42:47.532Z,1.88
2023-05-17T03:46:51.335Z,1.83
2023-05-17T03:50:56.789Z,1.80
2023-05-17T03:55:01.305Z,2.00
2023-05-17T03:59:05.630Z,1.92
2023-05-17T04:03:08.784Z,2.10
2023-05-17T04:07:12.063Z,2.22
2023-05-17T04:11:17.861Z,1.90
2023-05-17T04:15:22.006Z,2.00
2023-05-17T04:19:28.572Z,1.83
2023-05-17T04:23:32.210Z,2.00
2023-05-17T04:27:37.572Z,1.70
2023-05-17T04:31:43.248Z,1.70
2023-05-17T04:35:47.673Z,1.80
2023-05-17T04:39:51.501Z,1.60
2023-05-17T04:43:56.149Z,1.85
2023-05-17T04:48:07.094Z,1.73
2023-05-17T04:52:10.492Z,1.80
2023-05-17T04:56:14.647Z,1.80
2023-05-17T05:00:21.081Z,1.83
2023-05-17T05:04:31.334Z,1.80
2023-05-17T05:08:34.906Z,1.88
2023-05-17T05:12:39.292Z,2.03
2023-05-17T05:16:43.708Z,1.50
2023-05-17T05:20:49.277Z,1.60
2023-05-17T05:24:53.121Z,1.70
2023-05-17T05:28:56.338Z,1.80
2023-05-17T05:33:00.902Z,1.50
2023-05-17T05:37:04.094Z,1.80
2023-05-17T05:41:08.352Z,1.63
2023-05-17T05:45:13.796Z,1.60
2023-05-17T05:49:20.970Z,1.58
2023-05-17T05:53:24.983Z,1.75
2023-05-17T05:57:31.035Z,1.40
2023-05-17T06:01:34.348Z,1.50
2023-05-17T06:05:40.416Z,1.60
2023-05-17T06:09:44.438Z,1.58
2023-05-17T06:13:47.495Z,1.33
2023-05-17T06:17:50.658Z,1.50
2023-05-17T06:21:55.095Z,1.45
2023-05-17T06:25:58.186Z,1.60
2023-05-17T06:30:01.487Z,1.70
2023-05-17T06:34:04.701Z,2.03
2023-05-17T06:38:09.275Z,2.28
2023-05-17T06:42:12.308Z,2.10
2023-05-17T06:46:17.193Z,2.30
2023-05-17T06:50:20.456Z,1.77
2023-05-17T06:54:24.837Z,2.28
2023-05-17T06:58:27.919Z,2.53
2023-05-17T07:02:34.609Z,2.58
2023-05-17T07:06:38.014Z,2.40
2023-05-17T07:10:42.404Z,2.50
2023-05-17T07:14:45.465Z,2.72
2023-05-17T07:18:48.514Z,2.42
2023-05-17T07:22:51.691Z,2.30
2023-05-17T07:26:56.289Z,2.92
2023-05-17T07:30:59.377Z,2.47
2023-05-17T07:35:03.233Z,2.88
2023-05-17T07:39:06.414Z,2.42
2023-05-17T07:43:10.823Z,1.98
2023-05-17T07:47:13.993Z,2.25
2023-05-17T07:51:17.164Z,2.00
2023-05-17T07:55:21.391Z,1.70
2023-05-17T07:59:26.378Z,2.33
2023-05-17T08:03:29.585Z,2.17
2023-05-17T08:07:32.586Z,1.83
2023-05-17T08:11:35.722Z,2.30
2023-05-17T08:15:40.607Z,1.80
2023-05-17T08:19:43.952Z,2.13
2023-05-17T08:23:47.303Z,2.08
2023-05-17T08:27:50.397Z,1.83
2023-05-17T08:31:55.277Z,2.30
2023-05-17T08:36:01.276Z,1.70
2023-05-17T08:40:04.998Z,1.88
2023-05-17T08:44:09.353Z,2.03
2023-05-17T08:48:14.055Z,1.85
2023-05-17T08:52:18.055Z,1.50
2023-05-17T08:56:23.168Z,1.70
2023-05-17T09:00:28.813Z,1.67
2023-05-17T09:04:35.027Z,1.85
2023-05-17T09:08:38.631Z,1.65
2023-05-17T09:12:41.947Z,1.70
2023-05-17T09:16:45.075Z,1.70
2023-05-17T09:20:52.654Z,1.60
2023-05-17T09:24:55.838Z,2.03
2023-05-17T09:28:58.807Z,1.95
2023-05-17T09:33:07.243Z,1.55
2023-05-17T09:37:19.523Z,2.00
2023-05-17T09:41:23.486Z,1.80
2023-05-17T09:45:27.034Z,1.90
2023-05-17T09:49:30.476Z,1.70
2023-05-17T09:53:40.003Z,1.77
2023-05-17T09:57:43.149Z,1.85
2023-05-17T10:01:46.585Z,1.80
2023-05-17T10:05:52.902Z,1.80
2023-05-17T10:09:58.460Z,1.70
2023-05-17T10:14:11.042Z,1.90
2023-05-17T10:18:15.482Z,1.90
2023-05-17T10:22:23.149Z,2.10
2023-05-17T10:26:28.801Z,2.03
2023-05-17T10:30:31.970Z,2.17
2023-05-17T10:34:36.194Z,1.75
2023-05-17T10:38:42.895Z,2.17
2023-05-17T10:42:52.036Z,1.73
2023-05-17T10:46:56.504Z,2.10
2023-05-17T10:51:07.151Z,1.88
2023-05-17T10:55:11.628Z,1.80
2023-05-17T10:59:22.059Z,2.15
2023-05-17T11:03:28.966Z,1.90
2023-05-17T11:07:34.896Z,2.00
2023-05-17T11:11:38.105Z,2.30
2023-05-17T11:15:45.123Z,1.90
2023-05-17T11:19:57.812Z,1.88
2023-05-17T11:24:05.175Z,2.35
2023-05-17T11:28:09.958Z,1.75
2023-05-17T11:32:14.991Z,2.13
2023-05-17T11:36:21.552Z,1.88
2023-05-17T11:40:29.053Z,1.70
2023-05-17T11:44:33.776Z,2.10
2023-05-17T11:48:38.963Z,2.00
2023-05-17T11:52:42.353Z,2.17
2023-05-17T11:56:45.976Z,1.75
2023-05-17T12:00:54.706Z,2.05
2023-05-17T12:04:59.347Z,2.13
2023-05-17T12:09:03.142Z,2.22
2023-05-17T12:13:07.876Z,2.25
2023-05-17T12:17:14.358Z,2.50
2023-05-17T12:21:21.366Z,2.58
2023-05-17T12:25:27.977Z,2.30
2023-05-17T12:29:31.595Z,2.58
2023-05-17T12:33:39.398Z,2.55
2023-05-17T12:37:44.036Z,2.70
2023-05-17T12:41:48.860Z,3.08
2023-05-17T12:45:52.115Z,3.40
2023-05-17T12:49:55.886Z,2.88
2023-05-17T12:54:00.646Z,3.30
2023-05-17T12:58:05.573Z,3.40
2023-05-17T13:02:08.751Z,2.92
2023-05-17T13:06:11.924Z,3.60
2023-05-17T13:10:23.477Z,3.10
2023-05-17T13:14:38.623Z,3.20
2023-05-17T13:18:48.918Z,3.20
2023-05-17T13:22:52.170Z,3.13
2023-05-17T13:26:56.548Z,3.22
2023-05-17T13:30:59.686Z,2.95
2023-05-17T13:35:03.167Z,2.90
2023-05-17T13:39:06.377Z,2.90
2023-05-17T13:43:11.592Z,2.78
2023-05-17T13:47:14.684Z,2.50
2023-05-17T13:51:18.098Z,2.90
2023-05-17T13:55:21.240Z,3.20
2023-05-17T13:59:26.237Z,3.13
2023-05-17T14:03:29.414Z,3.15
2023-05-17T14:07:32.455Z,3.00
2023-05-17T14:11:35.699Z,3.30
2023-05-17T14:15:40.195Z,2.97
2023-05-17T14:19:43.400Z,3.10
2023-05-17T14:23:46.612Z,3.17
2023-05-17T14:27:49.892Z,2.90
2023-05-17T14:31:54.386Z,3.20
2023-05-17T14:35:57.459Z,3.20
2023-05-17T14:40:06.369Z,3.10
2023-05-17T14:44:10.035Z,3.08
2023-05-17T14:48:14.491Z,3.58
2023-05-17T14:52:17.745Z,2.92
2023-05-17T14:56:20.748Z,3.22
2023-05-17T15:00:24.710Z,3.20
2023-05-17T15:04:29.214Z,3.60
2023-05-17T15:08:32.410Z,3.60
2023-05-17T15:12:35.461Z,3.30
2023-05-17T15:16:38.800Z,3.03
2023-05-17T15:20:43.278Z,3.05
2023-05-17T15:24:47.008Z,3.30
2023-05-17T15:28:51.187Z,3.53
2023-05-17T15:32:54.410Z,3.60
2023-05-17T15:36:59.244Z,3.70
2023-05-17T15:41:05.006Z,4.40
2023-05-17T15:45:09.114Z,3.75
2023-05-17T15:49:12.275Z,3.88
2023-05-17T15:53:16.691Z,3.97
2023-05-17T15:57:19.711Z,4.40
2023-05-17T16:01:22.870Z,4.60
2023-05-17T16:05:25.965Z,5.35
2023-05-17T16:09:30.404Z,5.05
2023-05-17T16:13:36.573Z,4.65
2023-05-17T16:17:39.710Z,4.80
2023-05-17T16:21:42.885Z,4.43
2023-05-17T16:25:47.300Z,4.80
2023-05-17T16:29:50.435Z,4.32
2023-05-17T16:33:53.510Z,4.20
2023-05-17T16:37:56.638Z,4.40
2023-05-17T16:42:01.031Z,4.60
2023-05-17T16:46:04.132Z,4.20
2023-05-17T16:50:09.076Z,3.78
2023-05-17T16:54:12.126Z,4.10
2023-05-17T16:58:16.564Z,4.20
2023-05-17T17:02:20.099Z,4.05
2023-05-17T17:06:23.157Z,3.72
2023-05-17T17:10:26.258Z,3.83
2023-05-17T17:14:32.048Z,3.67
2023-05-17T17:18:35.166Z,3.42
2023-05-17T17:22:38.323Z,3.90
2023-05-17T17:26:41.506Z,3.90
2023-05-17T17:30:47.431Z,4.20
2023-05-17T17:34:50.530Z,3.95
2023-05-17T17:38:53.576Z,4.25
2023-05-17T17:42:56.665Z,4.20
2023-05-17T17:47:01.106Z,5.03
2023-05-17T17:51:04.267Z,5.07
2023-05-17T17:55:10.157Z,5.30
2023-05-17T17:59:13.363Z,4.80
2023-05-17T18:03:18.139Z,4.57
2023-05-17T18:07:21.277Z,5.03
2023-05-17T18:11:24.462Z,5.03
2023-05-17T18:15:27.773Z,4.60
2023-05-17T18:19:32.150Z,4.95
2023-05-17T18:23:35.708Z,4.00
2023-05-17T18:27:41.313Z,4.75
2023-05-17T18:31:44.536Z,4.43
2023-05-17T18:35:48.922Z,4.68
2023-05-17T18:39:52.042Z,4.10
2023-05-17T18:43:55.926Z,4.65
2023-05-17T18:47:59.110Z,4.38
2023-05-17T18:52:03.530Z,4.15
2023-05-17T18:56:07.235Z,4.43
2023-05-17T19:00:11.249Z,4.47
2023-05-17T19:04:15.324Z,4.78
2023-05-17T19:08:19.746Z,4.15
2023-05-17T19:12:23.185Z,4.00
2023-05-17T19:16:26.302Z,4.40
2023-05-17T19:20:29.482Z,4.05
2023-05-17T19:24:34.361Z,4.05
2023-05-17T19:28:37.512Z,3.67
2023-05-17T19:32:41.093Z,3.92
2023-05-17T19:36:44.203Z,3.70
2023-05-17T19:40:48.580Z,3.40
2023-05-17T19:44:51.810Z,2.85
2023-05-17T19:48:57.209Z,2.92
2023-05-17T19:53:00.278Z,2.90
2023-05-17T19:57:04.777Z,3.10
2023-05-17T20:01:07.851Z,3.38
2023-05-17T20:05:11.352Z,3.10
2023-05-17T20:09:14.455Z,3.15
2023-05-17T20:13:23.038Z,3.20
2023-05-17T20:17:26.157Z,3.28
2023-05-17T20:21:29.551Z,3.17
2023-05-17T20:25:32.769Z,3.45
2023-05-17T20:29:37.132Z,2.95
2023-05-17T20:33:40.285Z,3.20
2023-05-17T20:37:43.290Z,2.72
2023-05-17T20:41:47.758Z,3.00
2023-05-17T20:45:53.769Z,2.97
2023-05-17T20:49:56.875Z,3.20
2023-05-17T20:53:59.846Z,3.03
2023-05-17T20:58:02.959Z,3.28
2023-05-17T21:02:07.939Z,3.15
2023-05-17T21:06:11.402Z,2.65
2023-05-17T21:10:14.427Z,3.05
2023-05-17T21:14:17.463Z,3.10
2023-05-17T21:18:22.146Z,3.50
2023-05-17T21:22:25.280Z,3.38
2023-05-17T21:30:36.504Z,3.28
2023-05-17T21:34:43.244Z,3.08
2023-05-17T21:38:46.434Z,3.20
2023-05-17T21:42:50.028Z,3.45
2023-05-17T21:46:53.231Z,2.90
2023-05-17T21:50:57.683Z,3.35
2023-05-17T21:55:00.814Z,3.58
2023-05-17T21:59:03.795Z,3.28
2023-05-17T22:03:07.001Z,3.55
2023-05-17T22:07:13.296Z,3.15
2023-05-17T22:11:18.215Z,3.13
2023-05-17T22:15:21.979Z,3.42
2023-05-17T22:19:25.115Z,3.20
2023-05-17T22:23:29.490Z,2.97
2023-05-17T22:27:32.671Z,3.25
2023-05-17T22:31:37.935Z,2.92
2023-05-17T22:35:41.457Z,3.10
2023-05-17T22:39:45.964Z,3.28
2023-05-17T22:43:50.017Z,3.30
2023-05-17T22:47:54.271Z,2.90
2023-05-17T22:52:05.344Z,3.17
2023-05-17T22:56:09.761Z,3.08
2023-05-17T23:00:13.760Z,3.25
2023-05-17T23:04:16.811Z,3.03
2023-05-17T23:08:22.366Z,3.30
2023-05-17T23:12:28.199Z,3.13
2023-05-17T23:16:31.408Z,3.05
2023-05-17T23:20:35.003Z,3.20
2023-05-17T23:24:38.803Z,3.28
2023-05-17T23:28:43.487Z,3.13
2023-05-17T23:32:48.743Z,2.60
2023-05-17T23:36:51.731Z,2.65
2023-05-17T23:40:56.380Z,2.25
2023-05-17T23:45:01.002Z,2.53
2023-05-17T23:49:04.971Z,2.72
2023-05-17T23:53:09.524Z,3.25
2023-05-17T23:57:12.685Z,2.72
